Time;durP1;ratioP1;P1;durP2;ratioP2;P2;SDS_P1;SDS_P2;PMS_P1;PMS_P2;Temp;Humidity;BMP_temperature;BMP_pressure;BME280_temperature;BME280_humidity;BME280_pressure;Samples;Min_cycle;Max_cycle;Signal;HPM_P1;HPM_P2
2021/09/26 00:02:52;;;;;;;;;;;20.40;99.90;;;;;;4993579;28;19925;-73
2021/09/26 00:05:57;;;;;;;;;;;20.40;99.90;;;;;;5010671;28;20403;-73
2021/09/26 00:09:03;;;;;;;;;;;20.40;99.90;;;;;;5012149;28;19920;-73
2021/09/26 00:12:07;;;;;;;;;;;20.40;99.90;;;;;;5013060;28;20277;-73
2021/09/26 00:15:16;;;;;;;;;;;20.40;99.90;;;;;;4973658;28;19925;-73
2021/09/26 00:18:19;;;;;;;;;;;20.30;99.90;;;;;;4999834;28;20386;-73
2021/09/26 00:21:24;;;;;;;;;;;20.30;99.90;;;;;;5010332;28;19937;-73
2021/09/26 00:24:28;;;;;;;;;;;20.10;99.90;;;;;;4993394;28;19921;-73
2021/09/26 00:27:32;;;;;;;;;;;20.00;99.90;;;;;;4996384;28;19918;-73
2021/09/26 00:30:45;;;;;;;;;;;20.00;99.90;;;;;;4994074;28;19921;-73
2021/09/26 00:33:49;;;;;;;;;;;19.90;99.90;;;;;;5012755;28;20292;-73
2021/09/26 00:36:52;;;;;;;;;;;19.80;99.90;;;;;;4993096;28;19929;-73
2021/09/26 00:39:57;;;;;;;;;;;19.70;99.90;;;;;;4996364;28;20309;-73
2021/09/26 00:43:01;;;;;;;;;;;19.70;99.90;;;;;;4993536;28;20380;-73
2021/09/26 00:46:06;;;;;;;;;;;19.60;99.90;;;;;;5008847;28;19925;-73
2021/09/26 00:49:10;;;;;;;;;;;19.50;99.90;;;;;;5006269;28;19933;-73
2021/09/26 00:52:16;;;;;;;;;;;19.50;99.90;;;;;;4973338;28;19914;-73
2021/09/26 00:55:22;;;;;;;;;;;19.50;99.90;;;;;;4992147;28;20246;-73
2021/09/26 00:58:29;;;;;;;;;;;19.50;99.90;;;;;;4998844;28;19929;-73
2021/09/26 01:01:32;;;;;;;;;;;19.50;99.90;;;;;;5011610;28;19924;-73
2021/09/26 01:04:36;;;;;;;;;;;19.50;99.90;;;;;;5011638;28;19921;-73
2021/09/26 01:07:40;;;;;;;;;;;19.50;99.90;;;;;;4997850;28;19924;-72
2021/09/26 01:10:47;;;;;;;;;;;19.60;99.90;;;;;;4992216;28;20388;-72
2021/09/26 01:14:06;;;;;;;;;;;19.60;99.90;;;;;;4990825;28;19922;-72
2021/09/26 01:17:39;;;;;;;;;;;19.70;99.90;;;;;;5003753;28;19925;-73
2021/09/26 01:20:43;;;;;;;;;;;19.70;99.90;;;;;;4995569;28;20029;-73
2021/09/26 01:24:06;;;;;;;;;;;19.80;99.90;;;;;;4972859;28;19921;-73
2021/09/26 01:27:36;;;;;;;;;;;19.90;99.90;;;;;;4972711;28;20284;-73
2021/09/26 01:30:59;;;;;;;;;;;19.90;99.90;;;;;;4987323;28;19925;-74
2021/09/26 01:34:04;;;;;;;;;;;19.90;99.90;;;;;;4997047;28;19946;-73
2021/09/26 01:37:08;;;;;;;;;;;19.90;99.90;;;;;;5011609;28;19925;-73
2021/09/26 01:40:18;;;;;;;;;;;20.00;99.90;;;;;;5010667;28;19928;-73
2021/09/26 01:43:35;;;;;;;;;;;20.00;99.90;;;;;;5010585;28;20399;-73
2021/09/26 01:46:40;;;;;;;;;;;20.00;99.90;;;;;;5009781;28;19925;-73
2021/09/26 01:49:45;;;;;;;;;;;20.00;99.90;;;;;;4972295;28;19929;-73
2021/09/26 01:52:50;;;;;;;;;;;19.90;99.90;;;;;;4988776;28;19933;-73
2021/09/26 01:55:54;;;;;;;;;;;19.90;99.90;;;;;;4991853;28;19921;-73
2021/09/26 01:58:58;;;;;;;;;;;19.70;99.90;;;;;;5011224;28;19948;-73
2021/09/26 02:02:02;;;;;;;;;;;19.70;99.90;;;;;;4990707;28;20392;-74
2021/09/26 02:05:07;;;;;;;;;;;19.80;99.90;;;;;;4990482;28;19920;-73
2021/09/26 02:08:11;;;;;;;;;;;19.50;99.90;;;;;;4991595;28;20387;-74
2021/09/26 02:11:16;;;;;;;;;;;19.40;99.90;;;;;;5007812;28;20435;-74
2021/09/26 02:14:19;;;;;;;;;;;19.30;99.90;;;;;;5000934;28;20276;-74
2021/09/26 02:17:24;;;;;;;;;;;19.30;99.90;;;;;;4991217;28;19925;-74
2021/09/26 02:20:29;;;;;;;;;;;19.30;99.90;;;;;;5001877;28;20029;-74
2021/09/26 02:23:34;;;;;;;;;;;19.30;99.90;;;;;;4994463;28;19920;-74
2021/09/26 02:26:38;;;;;;;;;;;19.40;99.90;;;;;;5009802;28;19925;-73
2021/09/26 02:29:42;;;;;;;;;;;19.40;99.90;;;;;;4991101;28;19917;-73
2021/09/26 02:32:46;;;;;;;;;;;19.50;99.90;;;;;;4990608;28;19920;-73
2021/09/26 02:35:51;;;;;;;;;;;19.50;99.90;;;;;;4990427;28;20384;-74
2021/09/26 02:38:55;;;;;;;;;;;19.50;99.90;;;;;;4971958;28;19925;-74
2021/09/26 02:42:00;;;;;;;;;;;19.50;99.90;;;;;;4987803;28;19925;-74
2021/09/26 02:45:04;;;;;;;;;;;19.50;99.90;;;;;;4991165;28;19921;-73
2021/09/26 02:48:08;;;;;;;;;;;19.50;99.90;;;;;;5010821;28;19920;-73
2021/09/26 02:51:12;;;;;;;;;;;19.40;99.90;;;;;;5009456;28;20254;-73
2021/09/26 02:54:16;;;;;;;;;;;19.40;99.90;;;;;;5007168;28;19928;-74
2021/09/26 02:57:22;;;;;;;;;;;19.30;99.90;;;;;;4991210;28;19925;-74
2021/09/26 03:00:30;;;;;;;;;;;19.40;99.90;;;;;;4990833;28;19921;-73
2021/09/26 03:03:34;;;;;;;;;;;19.40;99.90;;;;;;4998921;28;20276;-73
2021/09/26 03:06:38;;;;;;;;;;;19.50;99.90;;;;;;5010492;28;19929;-73
2021/09/26 03:09:42;;;;;;;;;;;19.50;99.90;;;;;;5018804;28;19940;-73
2021/09/26 03:12:46;;;;;;;;;;;19.50;99.90;;;;;;4998576;28;19933;-73
2021/09/26 03:15:50;;;;;;;;;;;19.50;99.90;;;;;;4994221;28;19940;-74
2021/09/26 03:18:54;;;;;;;;;;;19.60;99.90;;;;;;4974872;28;20293;-74
2021/09/26 03:21:58;;;;;;;;;;;19.60;99.90;;;;;;4990451;28;19914;-73
2021/09/26 03:25:03;;;;;;;;;;;19.70;99.90;;;;;;4995821;28;19929;-73
2021/09/26 03:28:07;;;;;;;;;;;19.70;99.90;;;;;;5015238;28;19936;-74
2021/09/26 03:31:11;;;;;;;;;;;19.80;99.90;;;;;;5012825;28;19921;-74
2021/09/26 03:34:15;;;;;;;;;;;19.90;99.90;;;;;;5009684;28;19925;-74
2021/09/26 03:37:19;;;;;;;;;;;19.90;99.90;;;;;;5013811;28;19933;-73
2021/09/26 03:40:23;;;;;;;;;;;19.90;99.90;;;;;;5008956;28;19929;-73
2021/09/26 03:43:27;;;;;;;;;;;19.90;99.90;;;;;;5012505;28;19921;-73
2021/09/26 03:46:32;;;;;;;;;;;19.90;99.90;;;;;;5013219;28;20331;-73
2021/09/26 03:49:36;;;;;;;;;;;19.90;99.90;;;;;;5008889;28;19920;-73
2021/09/26 03:52:40;;;;;;;;;;;19.80;99.90;;;;;;5004799;28;19936;-72
2021/09/26 03:55:45;;;;;;;;;;;19.80;99.90;;;;;;4993467;28;19924;-73
2021/09/26 03:58:49;;;;;;;;;;;19.70;99.90;;;;;;4993653;28;19925;-74
2021/09/26 04:01:52;;;;;;;;;;;19.70;99.90;;;;;;4997116;28;19937;-73
2021/09/26 04:04:56;;;;;;;;;;;19.60;99.90;;;;;;4993469;28;19951;-73
2021/09/26 04:08:00;;;;;;;;;;;19.50;99.90;;;;;;5012330;28;19940;-73
2021/09/26 04:11:08;;;;;;;;;;;19.40;99.90;;;;;;5008467;28;19924;-73
2021/09/26 04:14:12;;;;;;;;;;;19.50;99.90;;;;;;5012486;28;19944;-73
2021/09/26 04:17:18;;;;;;;;;;;19.50;99.90;;;;;;4974011;28;19933;-73
2021/09/26 04:20:21;;;;;;;;;;;19.60;99.90;;;;;;5002208;28;19940;-74
2021/09/26 04:23:26;;;;;;;;;;;19.60;99.90;;;;;;4977308;28;19928;-73
2021/09/26 04:26:30;;;;;;;;;;;19.70;99.90;;;;;;4991993;28;19921;-73
2021/09/26 04:29:34;;;;;;;;;;;19.70;99.90;;;;;;4991979;28;20029;-74
2021/09/26 04:32:38;;;;;;;;;;;19.70;99.90;;;;;;4993023;28;19921;-73
2021/09/26 04:35:42;;;;;;;;;;;19.60;99.90;;;;;;4993730;28;20380;-73
2021/09/26 04:38:46;;;;;;;;;;;19.60;99.90;;;;;;5007235;28;19925;-73
2021/09/26 04:41:50;;;;;;;;;;;19.60;99.90;;;;;;5009840;28;19940;-73
2021/09/26 04:44:54;;;;;;;;;;;19.60;99.90;;;;;;4993337;28;19928;-73
2021/09/26 04:47:58;;;;;;;;;;;19.50;99.90;;;;;;5006616;28;19948;-73
2021/09/26 04:51:02;;;;;;;;;;;19.50;99.90;;;;;;5019018;28;19917;-73
2021/09/26 04:54:06;;;;;;;;;;;19.50;99.90;;;;;;5012998;28;19920;-73
2021/09/26 04:57:10;;;;;;;;;;;19.60;99.90;;;;;;5010852;28;19921;-73
2021/09/26 05:00:14;;;;;;;;;;;19.50;99.90;;;;;;5007350;28;19920;-73
2021/09/26 05:03:18;;;;;;;;;;;19.50;99.90;;;;;;5012806;28;19920;-73
2021/09/26 05:06:22;;;;;;;;;;;19.50;99.90;;;;;;5012309;28;19925;-74
2021/09/26 05:09:27;;;;;;;;;;;19.60;99.90;;;;;;5011675;28;19929;-73
2021/09/26 05:12:32;;;;;;;;;;;19.60;99.90;;;;;;5010406;28;20087;-74
2021/09/26 05:15:35;;;;;;;;;;;19.70;99.90;;;;;;4992680;28;19921;-73
2021/09/26 05:18:39;;;;;;;;;;;19.80;99.90;;;;;;5006157;28;19921;-73
2021/09/26 05:21:44;;;;;;;;;;;20.00;99.90;;;;;;5004501;28;20352;-72
2021/09/26 05:24:48;;;;;;;;;;;20.10;99.90;;;;;;4972823;28;19925;-73
2021/09/26 05:27:52;;;;;;;;;;;20.20;99.90;;;;;;4993197;28;19925;-73
2021/09/26 05:30:57;;;;;;;;;;;20.30;99.90;;;;;;4997131;28;19921;-73
2021/09/26 05:34:02;;;;;;;;;;;20.10;99.90;;;;;;5012274;28;19921;-73
2021/09/26 05:37:05;;;;;;;;;;;20.00;99.90;;;;;;5010277;28;19921;-73
2021/09/26 05:40:10;;;;;;;;;;;19.50;99.90;;;;;;5003647;28;20297;-73
2021/09/26 05:43:13;;;;;;;;;;;18.60;99.90;;;;;;4992242;28;19929;-75
2021/09/26 05:46:17;;;;;;;;;;;18.40;99.90;;;;;;4989490;28;19921;-73
2021/09/26 05:49:21;;;;;;;;;;;18.50;99.90;;;;;;4995361;28;19914;-73
2021/09/26 05:52:25;;;;;;;;;;;18.60;99.90;;;;;;4992174;28;20388;-74
2021/09/26 05:55:29;;;;;;;;;;;18.70;99.90;;;;;;5009652;28;19924;-74
2021/09/26 05:58:33;;;;;;;;;;;18.90;99.90;;;;;;5003454;28;19944;-74
2021/09/26 06:01:37;;;;;;;;;;;19.00;99.90;;;;;;4991961;28;19913;-74
2021/09/26 06:04:41;;;;;;;;;;;19.10;99.90;;;;;;4991908;28;20399;-73
2021/09/26 06:07:45;;;;;;;;;;;19.20;99.90;;;;;;5004218;28;19920;-74
2021/09/26 06:10:49;;;;;;;;;;;19.30;99.90;;;;;;5009379;28;19921;-74
2021/09/26 06:13:53;;;;;;;;;;;19.40;99.90;;;;;;4972473;28;20309;-74
2021/09/26 06:16:57;;;;;;;;;;;19.50;99.90;;;;;;4990249;28;19941;-74
2021/09/26 06:20:03;;;;;;;;;;;19.40;99.90;;;;;;4995417;28;19925;-74
2021/09/26 06:23:07;;;;;;;;;;;19.30;99.90;;;;;;5011030;28;19937;-74
2021/09/26 06:26:11;;;;;;;;;;;19.40;99.90;;;;;;4992881;28;19925;-74
2021/09/26 06:29:15;;;;;;;;;;;19.60;99.90;;;;;;4991197;28;19925;-74
2021/09/26 06:32:19;;;;;;;;;;;19.80;99.90;;;;;;4991512;28;19921;-74
2021/09/26 06:35:23;;;;;;;;;;;19.70;99.90;;;;;;4994711;28;19928;-74
2021/09/26 06:38:28;;;;;;;;;;;19.30;99.90;;;;;;4994848;28;19925;-74
2021/09/26 06:41:32;;;;;;;;;;;19.40;99.90;;;;;;4993213;28;19929;-74
2021/09/26 06:44:36;;;;;;;;;;;19.80;99.90;;;;;;5008220;28;20074;-74
2021/09/26 06:47:40;;;;;;;;;;;20.00;99.90;;;;;;5009718;28;19920;-74
2021/09/26 06:50:45;;;;;;;;;;;20.20;99.90;;;;;;5015122;28;19921;-74
2021/09/26 06:53:49;;;;;;;;;;;20.40;99.90;;;;;;4995312;28;20280;-74
2021/09/26 06:56:53;;;;;;;;;;;20.20;99.90;;;;;;4994708;28;19925;-74
2021/09/26 06:59:57;;;;;;;;;;;20.00;99.90;;;;;;4995911;28;19925;-74
2021/09/26 07:03:00;;;;;;;;;;;19.90;99.90;;;;;;4975393;28;19925;-74
2021/09/26 07:06:05;;;;;;;;;;;20.00;99.90;;;;;;4999429;28;20024;-74
2021/09/26 07:09:09;;;;;;;;;;;20.10;99.90;;;;;;5012205;28;20467;-73
2021/09/26 07:12:14;;;;;;;;;;;20.20;99.90;;;;;;4976201;28;20462;-73
2021/09/26 07:15:18;;;;;;;;;;;20.30;99.90;;;;;;4990185;28;19925;-73
2021/09/26 07:18:22;;;;;;;;;;;20.40;99.90;;;;;;4994269;28;19924;-71
2021/09/26 07:21:26;;;;;;;;;;;20.60;99.90;;;;;;5000630;28;20091;-73
2021/09/26 07:24:30;;;;;;;;;;;20.70;99.90;;;;;;4996106;28;19920;-74
2021/09/26 07:27:34;;;;;;;;;;;20.20;99.90;;;;;;4998250;28;19929;-74
2021/09/26 07:30:38;;;;;;;;;;;20.20;99.90;;;;;;4994658;28;20312;-73
2021/09/26 07:33:43;;;;;;;;;;;20.30;99.90;;;;;;5022559;28;20277;-74
2021/09/26 07:36:47;;;;;;;;;;;20.60;99.90;;;;;;5005225;28;19921;-73
2021/09/26 07:39:51;;;;;;;;;;;20.80;99.90;;;;;;4994214;28;19940;-74
2021/09/26 07:42:57;;;;;;;;;;;21.00;99.90;;;;;;5011399;28;19925;-73
2021/09/26 07:46:03;;;;;;;;;;;21.50;99.90;;;;;;5002012;28;19921;-74
2021/09/26 07:49:06;;;;;;;;;;;22.00;99.90;;;;;;4994162;28;19921;-73
2021/09/26 07:52:10;;;;;;;;;;;22.40;99.90;;;;;;4994213;28;19921;-73
2021/09/26 07:55:14;;;;;;;;;;;22.40;99.90;;;;;;5006175;28;19924;-73
2021/09/26 07:58:18;;;;;;;;;;;22.20;99.90;;;;;;5001252;28;19949;-74
2021/09/26 08:01:22;;;;;;;;;;;21.40;99.90;;;;;;5014117;28;19925;-73
2021/09/26 08:04:28;;;;;;;;;;;21.60;99.90;;;;;;5008605;28;19924;-73
2021/09/26 08:07:33;;;;;;;;;;;21.00;99.90;;;;;;5009160;28;19924;-73
2021/09/26 08:10:36;;;;;;;;;;;20.90;99.90;;;;;;4974475;28;20388;-73
2021/09/26 08:13:40;;;;;;;;;;;21.20;99.90;;;;;;5004123;28;19913;-73
2021/09/26 08:16:44;;;;;;;;;;;21.50;99.90;;;;;;5011871;28;19924;-73
2021/09/26 08:19:49;;;;;;;;;;;21.70;99.90;;;;;;5012880;28;20399;-73
2021/09/26 08:22:52;;;;;;;;;;;22.00;99.90;;;;;;5010857;28;19923;-73
2021/09/26 08:25:56;;;;;;;;;;;22.30;99.90;;;;;;5012000;28;19924;-73
2021/09/26 08:29:01;;;;;;;;;;;22.60;99.90;;;;;;5013031;28;19924;-73
2021/09/26 08:32:05;;;;;;;;;;;22.20;99.90;;;;;;5007485;28;19920;-73
2021/09/26 08:35:10;;;;;;;;;;;21.80;99.90;;;;;;5002402;28;19921;-73
2021/09/26 08:38:14;;;;;;;;;;;21.80;99.90;;;;;;4993548;28;19925;-73
2021/09/26 08:41:18;;;;;;;;;;;21.60;99.90;;;;;;5022239;28;19944;-73
2021/09/26 08:44:23;;;;;;;;;;;21.50;99.90;;;;;;5004765;28;19921;-73
2021/09/26 08:47:27;;;;;;;;;;;21.60;99.90;;;;;;4993482;28;19921;-73
2021/09/26 08:50:31;;;;;;;;;;;22.40;99.90;;;;;;5012749;28;19920;-73
2021/09/26 08:53:36;;;;;;;;;;;23.30;99.90;;;;;;5011516;28;19921;-73
2021/09/26 08:56:41;;;;;;;;;;;23.70;99.90;;;;;;5012141;28;20288;-73
2021/09/26 08:59:46;;;;;;;;;;;24.00;99.90;;;;;;5012433;28;19924;-73
2021/09/26 09:02:50;;;;;;;;;;;23.10;99.90;;;;;;5007719;28;19921;-73
2021/09/26 09:05:54;;;;;;;;;;;22.90;99.90;;;;;;5007013;28;19929;-73
2021/09/26 09:09:05;;;;;;;;;;;23.40;99.90;;;;;;5012431;28;19920;-73
2021/09/26 09:12:09;;;;;;;;;;;23.80;99.90;;;;;;5010895;28;20329;-73
2021/09/26 09:15:14;;;;;;;;;;;23.90;99.90;;;;;;5007064;28;19945;-73
2021/09/26 09:18:18;;;;;;;;;;;23.50;99.90;;;;;;4992309;28;19924;-73
2021/09/26 09:21:24;;;;;;;;;;;23.40;99.90;;;;;;4997499;28;19913;-74
2021/09/26 09:24:27;;;;;;;;;;;23.50;99.90;;;;;;5010632;28;19919;-73
2021/09/26 09:27:32;;;;;;;;;;;23.80;99.90;;;;;;5012291;28;19919;-73
2021/09/26 09:30:45;;;;;;;;;;;24.20;99.90;;;;;;4991774;28;19925;-74
2021/09/26 09:33:49;;;;;;;;;;;24.60;99.90;;;;;;5001329;28;19914;-73
2021/09/26 09:37:08;;;;;;;;;;;24.70;99.90;;;;;;5010737;28;19940;-72
2021/09/26 09:40:16;;;;;;;;;;;24.70;99.90;;;;;;4972723;28;20400;-72
2021/09/26 09:43:22;;;;;;;;;;;24.60;99.90;;;;;;5004190;28;19920;-74
2021/09/26 09:46:33;;;;;;;;;;;24.40;99.90;;;;;;5004802;28;21092;-74
2021/09/26 09:49:50;;;;;;;;;;;24.50;99.90;;;;;;4992019;28;19920;-75
2021/09/26 09:52:54;;;;;;;;;;;24.40;99.90;;;;;;5009556;28;19920;-73
2021/09/26 09:56:01;;;;;;;;;;;24.80;99.90;;;;;;5006144;28;19924;-74
2021/09/26 09:59:05;;;;;;;;;;;25.60;99.90;;;;;;5021792;28;20292;-74
2021/09/26 10:02:09;;;;;;;;;;;26.10;99.90;;;;;;5011430;28;19925;-74
2021/09/26 10:05:32;;;;;;;;;;;26.10;99.90;;;;;;5009771;28;19929;-74
2021/09/26 10:08:36;;;;;;;;;;;26.70;99.90;;;;;;5006785;28;19920;-74
2021/09/26 10:11:45;;;;;;;;;;;27.00;99.90;;;;;;5011375;28;20019;-74
2021/09/26 10:14:53;;;;;;;;;;;27.00;99.90;;;;;;5006477;28;20383;-74
2021/09/26 10:17:57;;;;;;;;;;;25.60;99.90;;;;;;5005862;28;19929;-74
2021/09/26 10:21:01;;;;;;;;;;;25.00;99.90;;;;;;4992888;28;19925;-75
2021/09/26 10:24:06;;;;;;;;;;;25.30;99.90;;;;;;4988447;28;19921;-74
2021/09/26 10:27:14;;;;;;;;;;;25.80;99.90;;;;;;4990959;28;20300;-74
2021/09/26 10:30:17;;;;;;;;;;;26.00;99.90;;;;;;4991301;28;20303;-75
2021/09/26 10:33:23;;;;;;;;;;;25.50;99.90;;;;;;4991138;28;19937;-75
2021/09/26 10:36:27;;;;;;;;;;;26.00;99.90;;;;;;4994471;28;19920;-74
2021/09/26 10:39:31;;;;;;;;;;;25.90;99.90;;;;;;4991944;28;20456;-74
2021/09/26 10:42:37;;;;;;;;;;;26.80;99.90;;;;;;4972331;28;19919;-75
2021/09/26 10:45:40;;;;;;;;;;;27.80;99.90;;;;;;4989001;28;19921;-74
2021/09/26 10:49:03;;;;;;;;;;;27.60;99.90;;;;;;4993715;28;19921;-74
2021/09/26 10:52:23;;;;;;;;;;;27.20;99.90;;;;;;5010431;28;19936;-74
2021/09/26 10:55:29;;;;;;;;;;;27.70;99.90;;;;;;4987985;28;19920;-75
2021/09/26 10:58:33;;;;;;;;;;;29.20;99.90;;;;;;4990601;28;19928;-75
2021/09/26 11:01:37;;;;;;;;;;;31.60;98.80;;;;;;4990658;28;19924;-74
2021/09/26 11:04:41;;;;;;;;;;;32.90;97.20;;;;;;5009422;28;19914;-74
2021/09/26 11:07:45;;;;;;;;;;;32.00;97.50;;;;;;5005362;28;19920;-75
2021/09/26 11:10:58;;;;;;;;;;;30.50;99.10;;;;;;5009771;28;19925;-73
2021/09/26 11:14:02;;;;;;;;;;;29.90;99.70;;;;;;5010856;28;19940;-75
2021/09/26 11:17:07;;;;;;;;;;;30.00;99.90;;;;;;4998611;28;19925;-71
2021/09/26 11:20:31;;;;;;;;;;;30.60;99.60;;;;;;5004616;28;20488;-73
2021/09/26 11:23:36;;;;;;;;;;;30.20;99.70;;;;;;4971343;28;19934;-71
2021/09/26 11:26:58;;;;;;;;;;;29.00;99.90;;;;;;4986481;28;19921;-73
2021/09/26 11:30:06;;;;;;;;;;;29.70;99.90;;;;;;4997430;28;20387;-71
2021/09/26 11:33:10;;;;;;;;;;;28.90;99.90;;;;;;5009709;28;19940;-72
2021/09/26 11:36:19;;;;;;;;;;;28.00;99.90;;;;;;4994351;28;19921;-73
2021/09/26 11:39:25;;;;;;;;;;;28.00;99.90;;;;;;4993759;28;20396;-73
2021/09/26 11:42:29;;;;;;;;;;;28.10;99.90;;;;;;4994081;28;19929;-73
2021/09/26 11:45:34;;;;;;;;;;;27.80;99.90;;;;;;4993799;28;19994;-72
2021/09/26 11:48:38;;;;;;;;;;;27.10;99.90;;;;;;5009810;28;19925;-72
2021/09/26 11:51:42;;;;;;;;;;;26.40;99.90;;;;;;5008347;28;19921;-72
2021/09/26 11:54:46;;;;;;;;;;;26.00;99.90;;;;;;4993794;28;19936;-71
2021/09/26 11:57:54;;;;;;;;;;;25.80;99.90;;;;;;4997333;28;19925;-72
2021/09/26 12:00:58;;;;;;;;;;;26.00;99.90;;;;;;5000672;28;20403;-72
2021/09/26 12:04:03;;;;;;;;;;;26.20;99.90;;;;;;5013998;28;20129;-72
2021/09/26 12:07:07;;;;;;;;;;;26.20;99.90;;;;;;4995885;28;20226;-72
2021/09/26 12:10:17;;;;;;;;;;;26.90;99.90;;;;;;4996971;28;19929;-72
2021/09/26 12:13:22;;;;;;;;;;;29.40;99.90;;;;;;4993608;28;20392;-72
2021/09/26 12:16:27;;;;;;;;;;;31.60;99.20;;;;;;4973555;28;19922;-72
2021/09/26 12:19:31;;;;;;;;;;;32.40;97.50;;;;;;4998285;28;19929;-72
2021/09/26 12:22:35;;;;;;;;;;;31.80;97.40;;;;;;4998832;28;19921;-72
2021/09/26 12:25:40;;;;;;;;;;;30.90;98.10;;;;;;4973651;28;19921;-71
2021/09/26 12:28:44;;;;;;;;;;;31.80;96.80;;;;;;5002980;28;20171;-71
2021/09/26 12:31:51;;;;;;;;;;;31.50;97.30;;;;;;5009625;28;19925;-71
2021/09/26 12:34:56;;;;;;;;;;;32.10;96.50;;;;;;4973872;28;20501;-71
2021/09/26 12:38:03;;;;;;;;;;;31.90;96.30;;;;;;4994570;28;19925;-72
2021/09/26 12:41:09;;;;;;;;;;;32.10;96.20;;;;;;4997230;28;20276;-71
2021/09/26 12:44:13;;;;;;;;;;;32.10;96.10;;;;;;4992859;28;19925;-71
2021/09/26 12:47:20;;;;;;;;;;;32.30;95.40;;;;;;5003754;28;20281;-71
2021/09/26 12:50:25;;;;;;;;;;;32.50;95.30;;;;;;5002689;28;19990;-72
2021/09/26 12:53:32;;;;;;;;;;;31.90;95.40;;;;;;4992886;28;20320;-72
2021/09/26 12:56:38;;;;;;;;;;;32.80;95.10;;;;;;4990997;28;19921;-71
2021/09/26 12:59:43;;;;;;;;;;;32.70;95.10;;;;;;4995832;28;20396;-72
2021/09/26 13:02:54;;;;;;;;;;;32.10;95.30;;;;;;4992247;28;19921;-71
2021/09/26 13:06:06;;;;;;;;;;;32.00;95.40;;;;;;4972822;28;19934;-71
2021/09/26 13:09:31;;;;;;;;;;;31.00;96.50;;;;;;4992513;28;19921;-72
2021/09/26 13:12:35;;;;;;;;;;;31.40;96.00;;;;;;4998554;28;19928;-72
2021/09/26 13:15:41;;;;;;;;;;;30.00;97.30;;;;;;5011862;28;19923;-70
2021/09/26 13:18:45;;;;;;;;;;;29.30;98.70;;;;;;5005452;28;20422;-72
2021/09/26 13:22:08;;;;;;;;;;;30.70;97.80;;;;;;5006597;28;19928;-71
2021/09/26 13:25:12;;;;;;;;;;;31.30;96.50;;;;;;5010732;28;20450;-72
2021/09/26 13:28:18;;;;;;;;;;;31.60;96.70;;;;;;4973123;28;19925;-73
2021/09/26 13:31:23;;;;;;;;;;;30.80;97.20;;;;;;4986791;28;19936;-71
2021/09/26 13:34:34;;;;;;;;;;;31.70;96.10;;;;;;4994089;28;19929;-73
2021/09/26 13:37:41;;;;;;;;;;;31.40;97.10;;;;;;4972863;28;19921;-72
2021/09/26 13:40:48;;;;;;;;;;;30.70;97.30;;;;;;4994239;28;19928;-72
2021/09/26 13:43:56;;;;;;;;;;;29.80;98.30;;;;;;4997515;28;20372;-72
2021/09/26 13:47:00;;;;;;;;;;;29.90;98.60;;;;;;5011519;28;19921;-71
2021/09/26 13:50:05;;;;;;;;;;;30.00;98.50;;;;;;4995493;28;19932;-72
2021/09/26 13:53:17;;;;;;;;;;;30.00;98.30;;;;;;4996518;28;20369;-72
2021/09/26 13:56:20;;;;;;;;;;;29.50;99.00;;;;;;5011070;28;19921;-72
2021/09/26 13:59:24;;;;;;;;;;;28.60;99.90;;;;;;4991585;28;19921;-72
2021/09/26 14:02:28;;;;;;;;;;;28.90;99.80;;;;;;4991291;28;19937;-72
2021/09/26 14:05:32;;;;;;;;;;;29.30;99.80;;;;;;4991191;28;20396;-72
2021/09/26 14:08:37;;;;;;;;;;;29.20;99.70;;;;;;4972170;28;19918;-72
2021/09/26 14:11:41;;;;;;;;;;;29.20;99.90;;;;;;4999171;28;19921;-71
2021/09/26 14:14:46;;;;;;;;;;;29.00;99.90;;;;;;5007476;28;19924;-72
2021/09/26 14:17:50;;;;;;;;;;;28.80;99.90;;;;;;4972569;28;19933;-72
2021/09/26 14:20:55;;;;;;;;;;;29.30;99.90;;;;;;4993598;28;19929;-72
2021/09/26 14:24:00;;;;;;;;;;;29.40;99.90;;;;;;5010097;28;19924;-72
2021/09/26 14:27:03;;;;;;;;;;;29.50;99.80;;;;;;5010866;28;19940;-72
2021/09/26 14:30:08;;;;;;;;;;;29.20;99.90;;;;;;5009655;28;19913;-73
2021/09/26 14:33:18;;;;;;;;;;;29.40;99.90;;;;;;5007303;28;19933;-72
2021/09/26 14:36:30;;;;;;;;;;;29.10;99.90;;;;;;4990843;28;19921;-72
2021/09/26 14:39:34;;;;;;;;;;;29.00;99.90;;;;;;5007175;28;19928;-72
2021/09/26 14:42:39;;;;;;;;;;;29.00;99.90;;;;;;5009373;28;19921;-72
2021/09/26 14:45:44;;;;;;;;;;;29.00;99.90;;;;;;5010332;28;19921;-72
2021/09/26 14:48:48;;;;;;;;;;;28.90;99.90;;;;;;4990867;28;19921;-71
2021/09/26 14:51:52;;;;;;;;;;;28.30;99.90;;;;;;4994396;28;19925;-72
2021/09/26 14:54:56;;;;;;;;;;;28.10;99.90;;;;;;4991584;28;19929;-73
2021/09/26 14:58:00;;;;;;;;;;;28.10;99.90;;;;;;4991002;28;19920;-72
2021/09/26 15:01:04;;;;;;;;;;;28.00;99.90;;;;;;4990326;28;19933;-73
2021/09/26 15:04:10;;;;;;;;;;;27.90;99.90;;;;;;4990624;28;19920;-72
2021/09/26 15:07:15;;;;;;;;;;;27.90;99.90;;;;;;4990788;28;20451;-72
2021/09/26 15:10:19;;;;;;;;;;;28.00;99.90;;;;;;4996876;28;19921;-72
2021/09/26 15:13:23;;;;;;;;;;;27.80;99.90;;;;;;5009800;28;20307;-72
2021/09/26 15:16:27;;;;;;;;;;;27.90;99.90;;;;;;5013000;28;19920;-71
2021/09/26 15:19:31;;;;;;;;;;;27.90;99.90;;;;;;5009178;28;19925;-72
2021/09/26 15:22:34;;;;;;;;;;;27.70;99.90;;;;;;5005468;28;19924;-72
2021/09/26 15:25:41;;;;;;;;;;;27.80;99.90;;;;;;5013541;28;20295;-73
2021/09/26 15:28:45;;;;;;;;;;;27.60;99.90;;;;;;5009524;28;19913;-72
2021/09/26 15:31:49;;;;;;;;;;;27.50;99.90;;;;;;5009404;28;19920;-72
2021/09/26 15:34:53;;;;;;;;;;;27.40;99.90;;;;;;5013274;28;19940;-72
2021/09/26 15:37:58;;;;;;;;;;;27.30;99.90;;;;;;4994661;28;19921;-72
2021/09/26 15:41:02;;;;;;;;;;;27.00;99.90;;;;;;4997176;28;19925;-71
2021/09/26 15:44:06;;;;;;;;;;;26.80;99.90;;;;;;5004590;28;19921;-73
2021/09/26 15:47:10;;;;;;;;;;;26.70;99.90;;;;;;4974599;28;19926;-72
2021/09/26 15:50:16;;;;;;;;;;;26.80;99.90;;;;;;4992314;28;20396;-72
2021/09/26 15:53:40;;;;;;;;;;;26.70;99.90;;;;;;4993694;28;19929;-71
2021/09/26 15:56:48;;;;;;;;;;;26.00;99.90;;;;;;4979377;28;19921;-72
2021/09/26 16:26:37;;;;;;;12.73;9.40;;;17.50;99.90;;;;;;5107493;28;20042;-52
2021/09/26 16:29:41;;;;;;;13.77;8.80;;;17.70;99.90;;;;;;5106368;28;20520;-54
2021/09/26 16:32:46;;;;;;;12.55;8.90;;;17.80;99.90;;;;;;5106118;28;20037;-54
2021/09/26 16:35:50;;;;;;;15.23;8.13;;;18.00;99.90;;;;;;5106601;28;20048;-52
2021/09/26 16:38:55;;;;;;;15.57;8.10;;;18.10;99.90;;;;;;5092412;22;20056;-48
2021/09/26 16:41:59;;;;;;;15.25;7.93;;;18.10;99.90;;;;;;5079615;28;20055;-48
2021/09/26 16:54:15;;;;;;;10.70;7.38;;;18.30;99.90;;;;;;4945931;29;20063;-47
2021/09/26 16:57:23;;;;;;;11.30;7.32;;;18.50;99.90;;;;;;4945605;28;20042;-48
2021/09/26 17:00:28;;;;;;;15.18;7.68;;;18.70;99.90;;;;;;5025972;28;20049;-48
2021/09/26 17:03:32;;;;;;;15.57;7.60;;;18.80;99.90;;;;;;5036391;28;20036;-47
2021/09/26 17:06:37;;;;;;;16.55;9.20;;;18.10;99.90;;;;;;5065031;28;20043;-47
2021/09/26 17:09:43;;;;;;;17.52;8.98;;;17.10;99.90;;;;;;5065352;28;20529;-47
2021/09/26 17:12:49;;;;;;;16.92;9.57;;;16.80;99.90;;;;;;5065633;28;20063;-48
2021/09/26 17:15:53;;;;;;;24.65;10.05;;;16.60;99.90;;;;;;5064248;28;20071;-48
2021/09/26 17:18:58;;;;;;;17.50;10.30;;;16.60;99.90;;;;;;5065206;28;20399;-47
2021/09/26 17:22:02;;;;;;;16.17;8.98;;;16.80;99.90;;;;;;5048244;28;20060;-47
2021/09/26 17:25:08;;;;;;;17.58;10.32;;;16.90;99.90;;;;;;5045150;28;20048;-47
2021/09/26 17:28:12;;;;;;;17.05;10.55;;;16.90;99.90;;;;;;5032201;28;20403;-47
2021/09/26 17:31:17;;;;;;;18.45;10.02;;;17.00;99.90;;;;;;5031253;28;20032;-48
2021/09/26 17:34:21;;;;;;;19.92;10.15;;;17.00;99.90;;;;;;5031796;28;20044;-47
2021/09/26 17:37:25;;;;;;;19.83;11.10;;;16.90;99.90;;;;;;5031777;28;20045;-48
2021/09/26 17:40:30;;;;;;;18.70;12.32;;;16.80;99.90;;;;;;5032016;28;20044;-47
2021/09/26 17:43:39;;;;;;;25.30;12.30;;;16.60;99.90;;;;;;5031701;28;20399;-51
2021/09/26 17:46:43;;;;;;;20.00;11.60;;;16.40;99.90;;;;;;5032446;28;20048;-48
2021/09/26 17:49:50;;;;;;;19.52;10.95;;;16.50;99.90;;;;;;5031734;28;20045;-47
2021/09/26 17:52:56;;;;;;;19.88;11.45;;;16.50;99.90;;;;;;5032361;28;20380;-47
2021/09/26 17:56:01;;;;;;;17.25;10.25;;;16.60;99.90;;;;;;5047151;28;20051;-48
2021/09/26 17:59:05;;;;;;;17.48;10.98;;;16.70;99.90;;;;;;5051626;28;20518;-47
2021/09/26 18:02:10;;;;;;;20.08;10.68;;;16.70;99.90;;;;;;5051619;28;20039;-47
2021/09/26 18:05:15;;;;;;;17.60;10.85;;;16.70;99.90;;;;;;5051250;28;20406;-47
2021/09/26 18:08:20;;;;;;;21.58;12.10;;;16.70;99.90;;;;;;5046576;28;20037;-48
2021/09/26 18:11:25;;;;;;;17.05;10.38;;;16.60;99.90;;;;;;5045779;28;20040;-47
2021/09/26 18:14:29;;;;;;;17.80;10.32;;;16.60;99.90;;;;;;5043221;28;20045;-49
2021/09/26 18:17:33;;;;;;;15.70;10.40;;;16.60;99.90;;;;;;5011845;28;20061;-47
2021/09/26 18:20:41;;;;;;;15.43;10.80;;;16.60;99.90;;;;;;5034281;28;20051;-50